NCAR-RAP Real-Time Weather Data

Output produced by METARs form (23 January 2018  15:55 UTC)
found at http://weather.rap.ucar.edu/surface/
 
Conditions at: KLOU observed 23 January 2018  15:42 UTC
Temperature: 5.0°C (41°F)
Dewpoint: -0.6°C (31°F) [RH = 67%]
Pressure (altimeter): 29.92 inches Hg (1013.3 mb)
Winds: from the WSW (240 degrees) at 14 MPH (12 knots; 6.2 m/s)
gusting to 21 MPH (18 knots; 9.4 m/s)
Visibility: 10 or more miles (16+ km)
Ceiling: 2900 feet AGL
Clouds: overcast cloud deck at 2900 feet AGL
Present Weather: no significant weather observed at this time
KLOU 231542Z 24012G18KT 10SM OVC029 05/M01 A2992 RMK AO2 T00501006